Main page
METAR-TAF:

METAR-TAF

Airports :

Vlissingen, Netherlands

latitude: 51-27N, longitude: 3-36E, elevation: 10 m

Current weather observation

The report was made 37 minutes ago, at 21:55 UTC
Wind 4 kt from the East/Southeast, varying between East/Northeast and Southeast
Temperature 11°C
Humidity 94%
Pressure 1023 hPa
Visibility 10 km or more

METAR: EHFS 222155Z AUTO 11004KT 070V130 9999 NSC 11/10 Q1023 W///H///

Time: 00:32 (22:32 UTC)


TAF: missing

Weather observations and forecasts of more than 4000 airports (METAR and TAF reports).

The available stations are represented by yellow and red dots on the map.

Hover mouse over dot to see the name of the station.

Then click to see weather observations and forecasts.

To change the map : click on the green buttons with a black cross to zoom in, on the green button with a dash to zoom out, or on the green arrows for adjacent maps.


METAR-TAF: